ADDS TAF Data INFO
IDs: Format: Raw Decoded Include METARs

Data at: 0257 UTC 21 Jun 2018

KTYS 210253Z 21005KT 10SM BKN110 BKN250 26/20 A2994 RMK AO2 SLP125 T02560200 53016

KTYS 202332Z 2100/2124 25009KT P6SM SCT050 BKN120 BKN250
  FM210300 24005KT P6SM FEW050 SCT150 BKN200
  FM211200 23005KT P6SM VCSH SCT050 BKN120 BKN200
  FM211700 22010G15KT P6SM -SHRA VCTS SCT035 BKN060CB OVC250


KGSO 210254Z 21003KT 10SM BKN050 BKN120 BKN250 26/22 A2987 RMK AO2 RAB44E49 SLP100 P0001 60001 T02560222 53010 $

KGSO 210046Z 2101/2124 VRB08G16KT P6SM TS SCT040CB BKN250
  FM210200 VRB04KT P6SM BKN250


KCLT 210252Z 19004KT 10SM BKN170 26/22 A2988 RMK AO2 SLP109 T02610222 53012 $

KCLT 202324Z 2100/2206 25004KT P6SM SCT060 BKN150
  FM210400 26003KT P6SM SCT080
  FM210800 30003KT 6SM BR SCT120
  FM211500 28007KT P6SM SCT060 BKN150
  FM211800 26008KT P6SM BKN060
  PROB30 2118/2124 4SM -TSRA OVC035CB


KRDU 210251Z 02003KT 10SM FEW060 BKN150 BKN250 26/23 A2986 RMK AO2 SLP106 T02560228 53012 $

KRDU 202331Z 2100/2124 21006KT P6SM SCT050 SCT250

KPOB 210208Z AUTO 25003KT 10SM FEW200 25/23 A2984 RMK AO2 PRESRR SLPNO $

TAF KPOB 210100Z 2101/2207 24006KT 8000 -SHRA BKN020 OVC030 QNH2978INS
  TEMPO 2101/2102 VRB15G20KT 4800 -TSRA OVC012CB
  BECMG 2102/2103 27007KT 9999 NSW SCT030 BKN060 QNH2980INS
  TEMPO 2110/2112 4800 BR SCT005
  BECMG 2121/2122 30012KT 8000 -SHRA VCTS SCT030CB BKN060 QNH2983INS TX34/2121Z TN24/2108Z


KFBG 210212Z AUTO 20003KT 10SM FEW200 25/25 A2984 RMK AO2 PRESRR SLPNO

TAF KFBG 210100Z 2101/2207 24006KT 8000 -SHRA BKN020 OVC030 QNH2978INS
  TEMPO 2101/2102 VRB15G20KT 4800 -TSRA OVC012CB
  BECMG 2102/2103 27007KT 9999 NSW SCT030 BKN060 QNH2980INS
  TEMPO 2110/2112 4800 BR SCT005
  BECMG 2121/2122 30012KT 8000 -SHRA VCTS SCT030CB BKN060 QNH2983INS TX34/2121Z TN24/2108Z


KFAY 210253Z 19005KT 10SM CLR 26/23 A2984 RMK AO2 LTG DSNT S SLP100 60001 T02560233 53007

KFAY 202331Z 2100/2124 VRB05KT P6SM VCSH SCT040 BKN250
  FM210200 VRB03KT P6SM SCT060 SCT250


KRWI 210253Z AUTO VRB03KT 10SM CLR 24/23 A2985 RMK AO2 SLP107 60000 T02440228 51014

KRWI 202331Z 2100/2124 27004KT P6SM SCT050 BKN250

KISO 210235Z AUTO 06003KT 10SM BKN110 25/24 A2986 RMK AO2 T02540240

KISO 202329Z 2100/2124 20005KT P6SM VCTS BKN100CB
  FM210100 20005KT P6SM BKN100
  FM210900 23005KT 5SM BR BKN090
  FM211200 25005KT P6SM BKN080
  FM211700 25005KT P6SM SCT030 BKN080 AMD LTD TO CLD VIS AND WIND


KGWW 210235Z AUTO 00000KT 10SM CLR 24/24 A2986 RMK AO2 T02390237

No TAF found for KGWW

KGSB 210156Z AUTO 00000KT 10SM BKN140 BKN170 25/22 A2982 RMK AO2 SLPNO T02520219 $

TAF KGSB 202000Z 2020/2202 VRB06KT 9999 SCT050 QNH2979INS
  TEMPO 2022/2100 29012G18KT 8000 -TSRA BKN050CB
  BECMG 2100/2101 29009KT 8000 -SHRA SCT040 BKN060 OVC100 QNH2975INS
  BECMG 2105/2106 24006KT 9999 NSW SCT030 BKN060 QNH2974INS
  BECMG 2122/2123 25009KT 9000 -SHRA BKN050 QNH2973INS
  TEMPO 2123/2202 VRB15G25KT 9000 -TSRA BKN040CB OVC065 TX35/2120Z TN25/2108Z


KDPL 210235Z AUTO 18005KT 3 1/2SM BR CLR 23/23 A2985 RMK AO2

No TAF found for KDPL

KCTZ 210235Z AUTO 00000KT 10SM CLR 25/24 A2985 RMK AO2 T02540236

No TAF found for KCTZ

KORF 210251Z 20008KT 10SM CLR 24/24 A2981 RMK AO2 RAE06 SLP093 P0000 60010 T02390239 50005 $

KORF 202323Z 2100/2124 17006KT 6SM -SHRA VCTS BKN050CB
  FM210200 19005KT P6SM VCSH BKN045
  FM210600 22005KT P6SM BKN050
  FM211200 25006KT P6SM BKN120
  FM211600 28006KT P6SM SCT040
  FM211800 34007KT P6SM VCSH SCT040


KLFI 210158Z 20006KT 10SM FEW008 SCT150 25/25 A2982 RMK AO2A RAB0111E0135 SLP105 P0000 60004 T02470247 53006

TAF KLFI 210100Z 2101/2207 10009KT 8000 -SHRA BKN030 BKN120 QNH2977INS
  TEMPO 2101/2102 23025G35KT 6000 -TSRA OVC020CB
  BECMG 2103/2104 VRB06KT 9000 BR BKN040 QNH2972INS
  BECMG 2113/2114 27009KT 9999 NSW BKN050 QNH2973INS
  BECMG 2201/2202 VRB06KT 9999 OVC010 QNH2982INS TX30/2118Z TN23/2110Z


KNTU 210156Z 23009KT 6SM -RA BKN050 OVC110 24/22 A2981 RMK AO2 TSB0059E01 SLP098 SVR T2 SET P0005 T02440217

TAF KNTU 2023/2123 15006KT 9999 VCTS FEW030CB SCT070 BKN100 QNH2974INS
  TEMPO 2023/2102 VRB25G50KT 1600 TSRA BR BKN020CB OVC070
  FM210200 VRB04KT 6000 BR SCT009 BKN050 BKN190 QNH2972INS
  FM211200 27010G18KT 9999 BKN140 BKN300 QNH2974INS
  FM211500 03009KT 9999 VCTS FEW030CB BKN070 BKN150 QNH2972INS
  TEMPO 2117/2123 VRB25G35KT 4800 TSRA BKN015CB OVC060 T23/2109Z T32/2119Z FN20051


KECG 210254Z 19009KT 10SM -RA FEW120 23/23 A2983 RMK AO2 LTG DSNT E AND SE SLP101 P0009 60196 T02330233 51015

KECG 210144Z 2102/2124 22007KT P6SM VCTS BKN050CB
  TEMPO 2102/2104 5SM -TSRA BR
  FM210400 19003KT P6SM BKN060
  FM210800 22003KT P6SM BKN080
  FM211200 26006KT P6SM BKN150
  FM211600 30007KT P6SM SCT040
  FM211800 35007KT P6SM VCSH SCT040


KEWN 210254Z AUTO 00000KT 10SM SCT046 BKN090 BKN110 26/24 A2987 RMK AO2 LTG DSNT NE SLP116 T02610239 53019

KEWN 202329Z 2100/2124 17005KT P6SM OVC250
  FM210300 24005KT P6SM BKN110
  FM211700 23005KT P6SM SCT030 BKN070


KNKT 210154Z 25003KT 10SM FEW100 FEW120 26/25 A2984 RMK AO2 SLP102 T02610250

TAF KNKT 2103/2203 VRB05KT 9999 FEW025 SCT035 QNH2977INS
  TEMPO 2103/2104 VRB14G35KT 3200 TSRA BR BKN025CB
  FM210500 20008KT 9999 SCT030 BKN050 BKN120 QNH2970INS
  TEMPO 2107/2113 VRB14G40KT 4800 -TSRA BR BKN005 BKN030CB OVC120 T24/2110Z T32/2118Z


KILM 210253Z 22006KT 10SM CLR 25/23 A2985 RMK AO2 SLP109 60001 T02500233 53014

KILM 202320Z 2100/2124 24008KT P6SM BKN040
  TEMPO 2100/2102 30011G18KT 2SM TSRA BKN015CB
  FM210200 22009KT P6SM SCT070 BKN120
  FM210600 22004KT P6SM FEW080
  TEMPO 2107/2111 3SM BR
  FM211400 24008KT P6SM SCT025
  FM211800 22010KT P6SM VCTS BKN040CB


KCAE 210156Z 11011KT 10SM VCTS BKN037 BKN050 BKN060 27/25 A2986 RMK AO2 LTG DSNT ALQDS RAB02E17 SLP108 OCNL LTGICCC E CB DSNT ALQDS P0008 T02720250 $

KCAE 202336Z 2100/2124 25006KT P6SM VCSH SCT060 BKN150
  TEMPO 2100/2102 4SM SHRA BR BKN040 OVC100
  FM210300 VRB03KT P6SM BKN150
  FM211600 29007KT P6SM SCT050
  FM212000 26007KT P6SM VCSH SCT050 BKN120


KSSC 210247Z 28008KT 8SM -TSRA OVC080 25/24 A2988 RMK AO2A RAB15 SLPNO TSNO $

TAF AMD KSSC 210055Z 2100/2205 16009KT 9999 FEW070 SCT100 BKN200 QNH2978INS
  TEMPO 2101/2103 22010G15KT 6000 -TSRA BKN050CB
  BECMG 2104/2105 29006KT 9999 SCT150 QNH2979INS
  BECMG 2114/2115 29009KT 9999 FEW050 FEW200 QNH2974INS
  BECMG 2123/2124 23006KT 9999 FEW200 QNH2976INS TX34/2118Z TN24/2112Z


KMMT 210226Z AUTO 00000KT 10SM -TSRA BKN024 OVC045 25/25 A2992 RMK AO2 RAB0159 PRESRR SLPNO $

TAF AMD KMMT 210045Z 2100/2205 18009KT 9999 FEW080 SCT150 BKN250 QNH2978INS
  TEMPO 2101/2103 22010G15KT 6000 -TSRA BKN050CB
  BECMG 2104/2105 29006KT 9999 SCT200 QNH2979INS
  BECMG 2114/2115 29009KT 9999 FEW050 FEW200 QNH2974INS
  BECMG 2119/2120 29009KT 9999 VCTS BKN050CB BKN200 QNH2974INS
  BECMG 2123/2124 23006KT 9999 NSW FEW200 QNH2976INS TX34/2118Z TN24/2112Z


KMYR 210256Z AUTO 00000KT 10SM CLR 27/24 A2988 RMK AO2 LTG DSNT N AND NE SLP117 T02720239 53012

KMYR 202320Z 2100/2124 19011KT P6SM VCTS BKN040CB
  FM210300 24008KT P6SM SCT070 BKN120
  FM210600 23006KT P6SM SCT070 SCT150
  FM211400 21011KT P6SM SCT020
  FM211800 22010KT P6SM VCTS BKN040CB


KCHS 210156Z 21008KT 10SM FEW040 SCT110 28/27 A2985 RMK AO2 RAE38 SLP106 P0000 T02780267

KCHS 202330Z 2100/2124 20010KT P6SM FEW070 BKN250
  FM210800 26006KT P6SM SCT030
  FM211900 21010KT P6SM SCT035


KSAV 210253Z 23005KT 10SM FEW065 SCT160 BKN240 27/24 A2988 RMK AO2 SLP118 T02670239 50006 $

KSAV 202330Z 2100/2124 VRB05KT P6SM FEW080 BKN250
  FM211900 23008KT P6SM SCT035


KSVN 210156Z AUTO 36005KT 10SM FEW230 26/24 A2985 RMK AO2 SLPNO T02620238 $

TAF KSVN 202000Z 2020/2202 21010G15KT 9999 VCTS SCT050CB SCT200 QNH2979INS
  TEMPO 2020/2022 VRB25G35KT 3200 TSRAGR BKN050CB
  BECMG 2023/2024 21009KT 8000 -SHRA SCT030 SCT200 QNH2981INS
  BECMG 2104/2105 23006KT 9999 NSW FEW200 QNH2983INS
  BECMG 2114/2115 23009KT 9999 FEW050 FEW200 QNH2976INS TX33/2118Z TN25/2112Z


KDCA 210252Z 25005KT 10SM FEW034 BKN120 OVC250 23/21 A2980 RMK AO2 LTG DSNT SW RAE22 SLP090 P0001 60012 T02330206 56006

KDCA 202340Z 2100/2206 28015G30KT 2SM +TSRA BKN025CB
  FM210100 VRB04KT P6SM VCSH BKN050
  FM210700 VRB04KT P6SM SCT008 SCT050 BKN200
  FM211600 35007KT P6SM SCT050 BKN200
  FM212100 04008KT P6SM BKN050 OVC200


KADW 210229Z AUTO 29004KT 10SM SCT049 SCT095 OVC120 22/21 A2979 RMK AO2 DZE06RAB06E29 SLP092 $

TAF AMD KADW 210200Z 2102/2207 24006KT 4800 -SHRA SCT006 OVC020 QNH2974INS
  BECMG 2103/2104 24006KT 6000 BR BKN008 OVC025 QNH2970INS
  BECMG 2108/2109 24006KT 8000 -SHRA OVC008 QNH2970INS
  BECMG 2112/2114 36012KT 9999 NSW OVC015 QNH2972INS
  BECMG 2115/2117 06009KT 9999 BKN015 OVC025 QNH2974INS TX28/2118Z TN19/2201Z